createdAt,value
2022-12-25T00:00:03.354Z,15.30
2022-12-25T00:00:36.932Z,14.03
2022-12-25T00:01:10.663Z,14.60
2022-12-25T00:01:45.617Z,13.07
2022-12-25T00:02:17.895Z,13.70
2022-12-25T00:02:50.276Z,13.27
2022-12-25T00:03:25.765Z,12.10
2022-12-25T00:03:58.737Z,13.27
2022-12-25T00:04:31.620Z,13.10
2022-12-25T00:05:07.181Z,13.67
2022-12-25T00:05:39.952Z,14.50
2022-12-25T00:06:14.990Z,14.20
2022-12-25T00:06:49.833Z,13.17
2022-12-25T00:07:22.172Z,14.40
2022-12-25T00:07:54.407Z,14.43
2022-12-25T00:08:29.273Z,14.33
2022-12-25T00:09:01.526Z,14.07
2022-12-25T00:09:33.848Z,14.33
2022-12-25T00:10:10.184Z,14.20
2022-12-25T00:10:45.306Z,12.80
2022-12-25T00:11:19.900Z,13.63
2022-12-25T00:11:54.759Z,11.93
2022-12-25T00:12:26.988Z,12.00
2022-12-25T00:12:59.223Z,11.60
2022-12-25T00:13:34.323Z,13.03
2022-12-25T00:14:06.587Z,13.17
2022-12-25T00:14:38.852Z,12.17
2022-12-25T00:15:14.082Z,12.37
2022-12-25T00:15:46.354Z,11.37
2022-12-25T00:16:20.667Z,11.77
2022-12-25T00:16:55.588Z,11.10
2022-12-25T00:17:27.807Z,12.70
2022-12-25T00:18:00.038Z,12.47
2022-12-25T00:18:32.307Z,12.03
2022-12-25T00:19:07.233Z,11.10
2022-12-25T00:19:39.532Z,10.87
2022-12-25T00:20:12.031Z,11.63
2022-12-25T00:20:44.273Z,11.57
2022-12-25T00:21:22.541Z,10.97
2022-12-25T00:21:54.792Z,11.77
2022-12-25T00:22:27.027Z,11.73
2022-12-25T00:23:01.832Z,10.40
2022-12-25T00:23:34.923Z,11.20
2022-12-25T00:24:07.552Z,10.57
2022-12-25T00:24:42.700Z,11.40
2022-12-25T00:25:15.054Z,10.93
2022-12-25T00:25:47.281Z,10.77
2022-12-25T00:26:22.118Z,11.10
2022-12-25T00:26:54.346Z,10.43
2022-12-25T00:27:27.484Z,10.37
2022-12-25T00:28:02.532Z,10.73
2022-12-25T00:28:36.105Z,10.30
2022-12-25T00:29:13.937Z,11.10
2022-12-25T00:29:46.238Z,10.33
2022-12-25T00:30:18.639Z,9.00
2022-12-25T00:30:54.433Z,11.43
2022-12-25T00:31:27.003Z,9.13
2022-12-25T00:32:02.057Z,10.60
2022-12-25T00:32:35.655Z,11.07
2022-12-25T00:33:07.969Z,10.63
2022-12-25T00:33:42.634Z,9.60
2022-12-25T00:34:17.480Z,9.67
2022-12-25T00:34:49.731Z,10.23
2022-12-25T00:35:22.022Z,10.87
2022-12-25T00:35:58.142Z,10.70
2022-12-25T00:36:41.457Z,10.00
2022-12-25T00:37:14.262Z,10.30
2022-12-25T00:37:46.695Z,8.90
2022-12-25T00:38:21.536Z,10.30
2022-12-25T00:38:53.753Z,10.70
2022-12-25T00:39:26.157Z,10.33
2022-12-25T00:40:01.036Z,9.90
2022-12-25T00:40:33.291Z,9.77
2022-12-25T00:41:06.299Z,8.73
2022-12-25T00:41:56.163Z,10.20
2022-12-25T00:42:30.986Z,9.53
2022-12-25T00:43:03.200Z,9.60
2022-12-25T00:43:35.805Z,9.00
2022-12-25T00:44:12.607Z,9.73
2022-12-25T00:44:44.935Z,10.10
2022-12-25T00:45:17.595Z,9.27
2022-12-25T00:45:59.720Z,9.37
2022-12-25T00:46:32.103Z,9.30
2022-12-25T00:47:04.684Z,9.37
2022-12-25T00:47:39.569Z,8.53
2022-12-25T00:48:11.793Z,9.80
2022-12-25T00:48:47.679Z,9.33
2022-12-25T00:49:24.368Z,9.30
2022-12-25T00:49:56.611Z,8.77
2022-12-25T00:50:28.867Z,9.40
2022-12-25T00:51:08.826Z,8.83
2022-12-25T00:51:43.685Z,8.13
2022-12-25T00:52:15.964Z,9.57
2022-12-25T00:52:50.781Z,8.63
2022-12-25T00:53:23.518Z,7.90
2022-12-25T00:53:55.760Z,8.80
2022-12-25T00:54:30.671Z,8.77
2022-12-25T00:55:02.909Z,8.80
2022-12-25T00:55:35.139Z,8.83
2022-12-25T00:56:10.867Z,8.63
2022-12-25T00:56:43.118Z,8.37
2022-12-25T00:57:15.360Z,8.23
2022-12-25T00:57:50.231Z,8.73
2022-12-25T00:58:22.632Z,8.97
2022-12-25T00:58:55.032Z,8.10
2022-12-25T00:59:27.547Z,8.07
2022-12-25T01:00:02.448Z,8.73
2022-12-25T01:00:34.762Z,7.77
2022-12-25T01:01:07.960Z,8.07
2022-12-25T01:01:43.519Z,9.27
2022-12-25T01:02:25.482Z,7.67
2022-12-25T01:02:58.031Z,7.10
2022-12-25T01:03:33.042Z,7.40
2022-12-25T01:04:05.895Z,7.70
2022-12-25T01:04:38.338Z,7.60
2022-12-25T01:05:13.211Z,7.33
2022-12-25T01:05:54.056Z,7.43
2022-12-25T01:06:26.872Z,7.60
2022-12-25T01:07:04.306Z,7.47
2022-12-25T01:07:36.521Z,7.57
2022-12-25T01:08:09.087Z,7.83
2022-12-25T01:09:06.227Z,7.33
2022-12-25T01:09:53.701Z,7.70
2022-12-25T01:10:25.967Z,7.17
2022-12-25T01:10:59.788Z,7.47
2022-12-25T01:11:32.375Z,7.23
2022-12-25T01:12:04.845Z,7.00
2022-12-25T01:12:41.299Z,7.80
2022-12-25T01:13:16.114Z,6.90
2022-12-25T01:13:48.340Z,6.90
2022-12-25T01:14:20.563Z,7.47
2022-12-25T01:14:52.806Z,7.07
2022-12-25T01:15:27.787Z,6.73
2022-12-25T01:16:00.063Z,7.67
2022-12-25T01:16:32.540Z,6.90
2022-12-25T01:17:04.857Z,6.93
2022-12-25T01:17:39.808Z,6.60
2022-12-25T01:18:13.078Z,6.87
2022-12-25T01:18:46.735Z,7.13
2022-12-25T01:19:21.564Z,6.43
2022-12-25T01:19:53.790Z,7.10
2022-12-25T01:20:28.641Z,6.13
2022-12-25T01:21:06.413Z,6.70
2022-12-25T01:21:38.698Z,6.70
2022-12-25T01:22:16.651Z,6.20
2022-12-25T01:22:48.945Z,6.80
2022-12-25T01:23:21.175Z,6.43
2022-12-25T01:23:56.565Z,7.00
2022-12-25T01:24:28.812Z,6.17
2022-12-25T01:25:01.044Z,6.17
2022-12-25T01:25:38.125Z,6.20
2022-12-25T01:26:12.170Z,6.03
2022-12-25T01:26:44.392Z,5.20
2022-12-25T01:27:19.281Z,6.77
2022-12-25T01:27:51.531Z,6.40
2022-12-25T01:28:23.744Z,6.13
2022-12-25T01:28:58.582Z,6.13
2022-12-25T01:29:30.797Z,5.50
2022-12-25T01:30:03.049Z,6.50
2022-12-25T01:30:38.279Z,6.10
2022-12-25T01:31:12.752Z,5.93
2022-12-25T01:31:45.088Z,6.13
2022-12-25T01:32:17.381Z,5.63
2022-12-25T01:32:53.359Z,6.13
2022-12-25T01:33:25.591Z,6.40
2022-12-25T01:33:57.845Z,5.53
2022-12-25T01:34:30.167Z,5.43
2022-12-25T01:35:05.064Z,6.00
2022-12-25T01:35:39.641Z,5.47
2022-12-25T01:36:14.991Z,5.20
2022-12-25T01:36:47.271Z,5.73
2022-12-25T01:37:24.698Z,5.20
2022-12-25T01:37:56.988Z,4.93
2022-12-25T01:38:29.226Z,5.63
2022-12-25T01:39:04.115Z,5.17
2022-12-25T01:39:36.413Z,4.70
2022-12-25T01:40:09.812Z,5.13
2022-12-25T01:40:44.692Z,5.00
2022-12-25T01:41:20.784Z,5.60
2022-12-25T01:41:53.175Z,5.47
2022-12-25T01:42:28.001Z,5.40
2022-12-25T01:43:00.223Z,4.87
2022-12-25T01:43:33.455Z,4.97
2022-12-25T01:44:10.392Z,5.57
2022-12-25T01:45:22.031Z,5.73
2022-12-25T01:45:57.913Z,5.03
2022-12-25T01:46:31.003Z,4.03
2022-12-25T01:47:03.423Z,4.90
2022-12-25T01:47:35.651Z,5.17
2022-12-25T01:48:14.709Z,5.00
2022-12-25T01:48:46.935Z,5.20
2022-12-25T01:49:22.345Z,4.70
2022-12-25T01:49:57.422Z,5.23
2022-12-25T01:50:29.932Z,4.97
2022-12-25T01:51:06.656Z,4.67
2022-12-25T01:51:43.965Z,4.97
2022-12-25T01:52:23.544Z,4.93
2022-12-25T01:52:59.187Z,4.60
2022-12-25T01:53:34.341Z,4.50
2022-12-25T01:54:10.180Z,4.43
2022-12-25T01:54:44.725Z,4.60
2022-12-25T01:55:19.897Z,4.80
2022-12-25T01:55:56.103Z,4.33
2022-12-25T01:56:29.509Z,4.07
2022-12-25T01:57:05.887Z,4.33
2022-12-25T01:57:39.702Z,4.60
2022-12-25T01:58:12.567Z,3.50
2022-12-25T01:58:47.426Z,4.63
2022-12-25T01:59:22.494Z,4.63
2022-12-25T01:59:55.607Z,4.20
2022-12-25T02:00:30.435Z,4.27
2022-12-25T02:01:02.769Z,4.23
2022-12-25T02:01:35.271Z,4.23
2022-12-25T02:02:08.591Z,4.50
2022-12-25T02:02:44.828Z,3.50
2022-12-25T02:03:17.551Z,3.80
2022-12-25T02:03:49.832Z,4.23
2022-12-25T02:04:38.864Z,3.77
2022-12-25T02:05:15.260Z,3.87
2022-12-25T02:05:48.254Z,3.50
2022-12-25T02:06:23.325Z,4.23
2022-12-25T02:06:55.637Z,4.20
2022-12-25T02:07:29.096Z,3.87
2022-12-25T02:08:11.259Z,3.80
2022-12-25T02:08:43.683Z,4.00
2022-12-25T02:09:16.086Z,3.50
2022-12-25T02:09:48.653Z,3.60
2022-12-25T02:10:23.553Z,4.00
2022-12-25T02:10:56.000Z,3.17
2022-12-25T02:11:43.223Z,3.77
2022-12-25T02:12:18.711Z,3.70
2022-12-25T02:12:53.759Z,3.40
2022-12-25T02:13:26.025Z,3.57
2022-12-25T02:14:00.283Z,3.60
2022-12-25T02:14:34.547Z,4.10
2022-12-25T02:15:11.716Z,4.50
2022-12-25T02:15:53.207Z,3.67
2022-12-25T02:16:27.946Z,3.50
2022-12-25T02:17:09.564Z,3.27
2022-12-25T02:17:44.660Z,3.70
2022-12-25T02:18:24.270Z,3.33
2022-12-25T02:19:00.291Z,3.30
2022-12-25T02:19:52.551Z,3.43
2022-12-25T02:20:42.713Z,3.87
2022-12-25T02:21:32.897Z,3.00
2022-12-25T02:22:12.412Z,3.60
2022-12-25T02:22:53.263Z,3.10
2022-12-25T02:23:58.748Z,3.13
2022-12-25T02:24:53.091Z,3.10
2022-12-25T02:25:36.902Z,3.07
2022-12-25T02:26:16.791Z,3.20
2022-12-25T02:27:03.803Z,2.93
2022-12-25T02:28:00.360Z,3.43
2022-12-25T02:28:43.202Z,2.60
2022-12-25T02:29:21.316Z,3.10
2022-12-25T02:29:56.895Z,3.00
2022-12-25T02:30:37.888Z,3.00
2022-12-25T02:31:15.241Z,3.00
2022-12-25T02:31:52.938Z,3.00
2022-12-25T02:32:31.248Z,3.03
2022-12-25T02:33:23.458Z,3.17
2022-12-25T02:34:05.324Z,2.90
2022-12-25T02:34:45.558Z,3.00
2022-12-25T02:35:26.529Z,2.80
2022-12-25T02:36:02.751Z,2.63
2022-12-25T02:36:39.411Z,2.73
2022-12-25T02:37:15.433Z,2.47
2022-12-25T02:37:55.205Z,2.43
2022-12-25T02:38:32.444Z,2.20
2022-12-25T02:39:26.011Z,2.80
2022-12-25T02:40:02.030Z,2.63
2022-12-25T02:40:40.463Z,2.80
2022-12-25T02:41:16.177Z,2.93
2022-12-25T02:41:55.936Z,2.90
2022-12-25T02:42:50.255Z,3.00
2022-12-25T02:43:43.355Z,2.93
2022-12-25T02:44:34.263Z,2.63
2022-12-25T02:45:22.471Z,2.57
2022-12-25T02:46:12.730Z,2.70
2022-12-25T02:47:09.608Z,3.03
2022-12-25T02:47:56.895Z,2.67
2022-12-25T02:48:47.426Z,2.53
2022-12-25T02:49:38.636Z,2.30
2022-12-25T02:50:26.395Z,2.90
2022-12-25T02:51:15.751Z,2.37
2022-12-25T02:52:07.520Z,2.70
2022-12-25T02:52:55.962Z,2.23
2022-12-25T02:53:43.727Z,1.90
2022-12-25T02:54:36.556Z,2.30
2022-12-25T02:55:26.916Z,2.57
2022-12-25T02:56:14.701Z,2.30
2022-12-25T02:57:03.243Z,2.30
2022-12-25T02:58:04.294Z,2.20
2022-12-25T02:58:55.151Z,2.10
2022-12-25T02:59:43.622Z,2.00
2022-12-25T03:00:31.260Z,2.70
2022-12-25T03:01:21.390Z,2.10
2022-12-25T03:02:09.454Z,1.93
2022-12-25T03:02:58.067Z,2.10
2022-12-25T03:03:48.025Z,2.20
2022-12-25T03:04:37.231Z,2.00
2022-12-25T03:06:48.669Z,1.90
2022-12-25T03:07:22.329Z,2.33
2022-12-25T03:07:55.988Z,2.03
2022-12-25T03:08:30.493Z,1.60
2022-12-25T03:09:18.978Z,2.00
2022-12-25T03:10:09.206Z,2.13
2022-12-25T03:10:59.550Z,1.57
2022-12-25T03:11:35.540Z,2.10
2022-12-25T03:12:11.700Z,2.17
2022-12-25T03:12:47.969Z,1.83
2022-12-25T03:13:25.608Z,1.83
2022-12-25T03:14:17.471Z,1.97
2022-12-25T03:15:04.706Z,1.70
2022-12-25T03:15:52.039Z,2.00
2022-12-25T03:16:39.328Z,1.80
2022-12-25T03:17:12.017Z,1.40
2022-12-25T03:17:44.300Z,2.03
2022-12-25T03:18:22.434Z,1.53
2022-12-25T03:18:55.125Z,1.50
2022-12-25T03:19:45.614Z,1.83
2022-12-25T03:20:33.011Z,1.73
2022-12-25T03:21:21.155Z,1.67
2022-12-25T03:22:08.977Z,1.83
2022-12-25T03:22:58.495Z,2.40
2022-12-25T03:23:48.543Z,1.70
2022-12-25T03:24:35.805Z,1.37
2022-12-25T03:25:24.760Z,1.37
2022-12-25T03:26:11.998Z,2.17
2022-12-25T03:26:59.647Z,1.50
2022-12-25T03:27:33.924Z,1.17
2022-12-25T03:28:06.692Z,1.43
2022-12-25T03:28:38.939Z,1.70
2022-12-25T03:29:36.517Z,1.30
2022-12-25T03:30:26.243Z,2.00
2022-12-25T03:31:13.622Z,1.87
2022-12-25T03:31:51.452Z,1.40
2022-12-25T03:32:39.776Z,1.50
2022-12-25T03:33:43.358Z,1.60
2022-12-25T03:34:38.093Z,1.70
2022-12-25T03:35:26.737Z,1.50
2022-12-25T03:36:04.948Z,1.50
2022-12-25T03:36:45.019Z,1.80
2022-12-25T03:37:39.503Z,1.80
2022-12-25T03:38:33.686Z,1.43
2022-12-25T03:39:26.075Z,1.47
2022-12-25T03:40:18.826Z,1.53
2022-12-25T03:41:12.226Z,1.37
2022-12-25T03:42:02.119Z,1.50
2022-12-25T03:42:53.280Z,1.30
2022-12-25T03:43:46.770Z,1.30
2022-12-25T03:44:40.565Z,1.30
2022-12-25T03:45:33.045Z,1.20
2022-12-25T03:46:24.633Z,1.30
2022-12-25T03:47:16.656Z,1.40
2022-12-25T03:48:06.134Z,1.40
2022-12-25T03:48:56.313Z,1.33
2022-12-25T03:49:47.770Z,1.30
2022-12-25T03:50:37.487Z,1.23
2022-12-25T03:51:26.060Z,1.10
2022-12-25T03:52:14.540Z,1.40
2022-12-25T03:53:02.672Z,1.40
2022-12-25T03:53:54.721Z,1.27
2022-12-25T03:54:43.586Z,0.90
2022-12-25T03:55:31.530Z,1.37
2022-12-25T03:56:20.082Z,1.40
2022-12-25T03:57:07.819Z,1.60
2022-12-25T03:57:55.264Z,1.20
2022-12-25T03:58:43.188Z,1.23
2022-12-25T03:59:37.232Z,1.50
2022-12-25T04:00:26.130Z,1.17
2022-12-25T04:01:13.554Z,1.47
2022-12-25T04:02:01.077Z,1.33
2022-12-25T04:02:48.779Z,1.23
2022-12-25T04:03:36.306Z,1.20
2022-12-25T04:04:23.791Z,1.40
2022-12-25T04:05:11.151Z,1.40
2022-12-25T04:05:58.387Z,1.47
2022-12-25T04:06:45.396Z,1.17
2022-12-25T04:07:32.615Z,1.10
2022-12-25T04:08:19.888Z,1.03
2022-12-25T04:09:07.103Z,1.40
2022-12-25T04:09:54.305Z,1.40
2022-12-25T04:10:41.591Z,0.90
2022-12-25T04:11:28.863Z,1.10
2022-12-25T04:12:21.760Z,1.10
2022-12-25T04:13:09.000Z,1.17
2022-12-25T04:13:56.371Z,1.27
2022-12-25T04:14:46.211Z,1.40
2022-12-25T04:15:33.576Z,1.30
2022-12-25T04:16:21.446Z,1.20
2022-12-25T04:17:08.780Z,1.03
2022-12-25T04:17:55.998Z,1.37
2022-12-25T04:18:43.230Z,1.43
2022-12-25T04:19:30.492Z,1.00
2022-12-25T04:20:17.739Z,1.20
2022-12-25T04:21:05.006Z,2.10
2022-12-25T04:21:52.085Z,1.10
2022-12-25T04:22:39.345Z,1.20
2022-12-25T04:23:26.626Z,1.20
2022-12-25T04:24:13.842Z,1.30
2022-12-25T04:25:01.059Z,1.20
2022-12-25T04:25:48.302Z,1.03
2022-12-25T04:26:35.670Z,1.17
2022-12-25T04:27:22.893Z,1.10
2022-12-25T04:28:10.116Z,1.00
2022-12-25T04:28:57.445Z,1.00
2022-12-25T04:29:53.303Z,1.10
2022-12-25T04:30:40.567Z,0.80
2022-12-25T04:31:27.919Z,1.00
2022-12-25T04:32:15.211Z,0.87
2022-12-25T04:33:02.473Z,0.90
2022-12-25T04:33:49.721Z,1.00
2022-12-25T04:34:36.998Z,0.93
2022-12-25T04:35:33.606Z,1.10
2022-12-25T04:36:11.903Z,1.10
2022-12-25T04:36:44.155Z,1.20
2022-12-25T04:37:16.406Z,0.80
2022-12-25T04:37:51.229Z,0.90
2022-12-25T04:38:24.658Z,1.40
2022-12-25T04:38:56.896Z,0.90
2022-12-25T04:39:29.128Z,2.60
2022-12-25T04:40:03.975Z,1.27
2022-12-25T04:40:36.254Z,0.90
2022-12-25T04:41:09.358Z,1.47
2022-12-25T04:41:44.174Z,1.07
2022-12-25T04:42:16.474Z,1.00
2022-12-25T04:42:50.396Z,0.93
2022-12-25T04:43:25.459Z,0.93
2022-12-25T04:43:57.700Z,1.00
2022-12-25T04:44:32.545Z,1.10
2022-12-25T04:45:05.354Z,1.17
2022-12-25T04:45:40.187Z,1.20
2022-12-25T04:46:12.441Z,1.20
2022-12-25T04:46:44.873Z,1.03
2022-12-25T04:47:19.805Z,1.23
2022-12-25T04:47:52.055Z,1.33
2022-12-25T04:48:24.766Z,1.17
2022-12-25T04:48:59.638Z,1.23
2022-12-25T04:49:31.903Z,1.27
2022-12-25T04:50:05.129Z,1.47
2022-12-25T04:50:39.951Z,1.20
2022-12-25T04:51:13.919Z,1.30
2022-12-25T04:51:46.135Z,1.00
2022-12-25T04:52:21.007Z,1.10
2022-12-25T04:52:53.274Z,1.00
2022-12-25T04:53:25.571Z,0.90
2022-12-25T04:54:00.427Z,1.07
2022-12-25T04:54:32.735Z,1.10
2022-12-25T04:55:06.154Z,1.10
2022-12-25T04:55:40.981Z,1.00
2022-12-25T04:56:13.579Z,0.90
2022-12-25T04:56:46.249Z,0.83
2022-12-25T04:57:21.209Z,0.93
2022-12-25T04:57:53.471Z,0.80
2022-12-25T04:58:25.724Z,1.00
2022-12-25T04:59:00.564Z,1.03
2022-12-25T04:59:35.378Z,1.00
2022-12-25T05:00:10.233Z,0.97
2022-12-25T05:00:42.487Z,0.70
2022-12-25T05:01:17.760Z,1.00
2022-12-25T05:01:50.191Z,1.00
2022-12-25T05:02:22.685Z,0.77
2022-12-25T05:02:57.962Z,0.90
2022-12-25T05:03:30.991Z,0.87
2022-12-25T05:04:03.250Z,0.90
2022-12-25T05:04:38.142Z,0.90
2022-12-25T05:05:10.367Z,1.10
2022-12-25T05:05:42.592Z,0.80
2022-12-25T05:06:17.449Z,1.00
2022-12-25T05:06:49.676Z,0.73
2022-12-25T05:07:21.935Z,0.80
2022-12-25T05:07:54.183Z,1.40
2022-12-25T05:08:29.252Z,0.70
2022-12-25T05:09:01.487Z,1.00
2022-12-25T05:09:33.734Z,0.67
2022-12-25T05:10:09.996Z,0.77
2022-12-25T05:10:42.278Z,0.70
2022-12-25T05:11:15.960Z,1.00
2022-12-25T05:11:50.835Z,0.70
2022-12-25T05:12:23.066Z,0.80
2022-12-25T05:12:55.283Z,0.80
2022-12-25T05:13:27.563Z,0.90
2022-12-25T05:14:02.437Z,0.70
2022-12-25T05:14:37.437Z,0.70
2022-12-25T05:15:10.707Z,0.90
2022-12-25T05:15:43.647Z,0.70
2022-12-25T05:16:20.794Z,0.77
2022-12-25T05:16:53.151Z,0.80
2022-12-25T05:17:25.417Z,0.73
2022-12-25T05:18:00.264Z,0.80
2022-12-25T05:18:32.550Z,0.73
2022-12-25T05:19:04.799Z,0.87
2022-12-25T05:19:37.022Z,0.80
2022-12-25T05:20:12.075Z,0.77
2022-12-25T05:20:51.086Z,0.70
2022-12-25T05:21:23.529Z,0.83
2022-12-25T05:21:58.556Z,0.70
2022-12-25T05:22:30.791Z,0.90
2022-12-25T05:23:03.047Z,0.90
2022-12-25T05:23:38.102Z,0.93
2022-12-25T05:24:10.459Z,0.80
2022-12-25T05:24:42.727Z,0.70
2022-12-25T05:25:15.025Z,0.67
2022-12-25T05:25:49.886Z,0.70
2022-12-25T05:26:23.486Z,0.70
2022-12-25T05:26:55.856Z,0.73
2022-12-25T05:27:30.718Z,0.67
2022-12-25T05:28:03.010Z,0.70
2022-12-25T05:28:35.512Z,0.80
2022-12-25T05:29:10.394Z,1.00
2022-12-25T05:29:45.242Z,0.77
2022-12-25T05:30:17.549Z,0.80
2022-12-25T05:30:52.388Z,0.80
2022-12-25T05:31:24.671Z,0.73
2022-12-25T05:31:56.958Z,0.70
2022-12-25T05:32:31.772Z,0.70
2022-12-25T05:33:04.453Z,0.80
2022-12-25T05:33:36.695Z,0.80
2022-12-25T05:34:11.545Z,0.77
2022-12-25T05:34:43.821Z,0.83
2022-12-25T05:35:16.249Z,0.60
2022-12-25T05:35:51.115Z,0.73
2022-12-25T05:36:23.433Z,0.90
2022-12-25T05:36:56.696Z,0.60
2022-12-25T05:37:28.991Z,0.70
2022-12-25T05:38:03.811Z,0.60
2022-12-25T05:38:36.420Z,0.63
2022-12-25T05:39:08.637Z,0.70
2022-12-25T05:39:43.455Z,0.80
2022-12-25T05:40:15.846Z,0.70
2022-12-25T05:40:48.148Z,0.60
2022-12-25T05:41:23.026Z,0.90
2022-12-25T05:41:55.235Z,0.70
2022-12-25T05:42:27.467Z,0.60
2022-12-25T05:43:02.388Z,0.70
2022-12-25T05:43:34.843Z,0.60
2022-12-25T05:44:07.088Z,0.83
2022-12-25T05:44:41.957Z,0.70
2022-12-25T05:45:16.975Z,0.67
2022-12-25T05:45:49.202Z,0.70
2022-12-25T05:46:24.134Z,0.70
2022-12-25T05:46:56.541Z,0.80
2022-12-25T05:47:28.839Z,0.60
2022-12-25T05:48:03.703Z,0.60
2022-12-25T05:48:37.688Z,0.60
2022-12-25T05:49:09.939Z,0.63
2022-12-25T05:49:45.332Z,0.70
2022-12-25T05:50:17.667Z,0.70
2022-12-25T05:50:49.989Z,0.50
2022-12-25T05:51:26.163Z,0.70
2022-12-25T05:51:58.419Z,0.70
2022-12-25T05:52:32.010Z,0.60
2022-12-25T05:53:08.633Z,0.80
2022-12-25T05:53:42.137Z,0.77
2022-12-25T05:54:14.387Z,0.70
2022-12-25T05:54:49.211Z,0.70
2022-12-25T05:55:21.436Z,0.73
2022-12-25T05:55:53.736Z,0.80
2022-12-25T05:56:25.970Z,0.70
2022-12-25T05:57:00.780Z,0.67
2022-12-25T05:57:33.299Z,0.63
2022-12-25T05:58:06.421Z,0.60
2022-12-25T05:58:39.622Z,0.60
2022-12-25T05:59:14.463Z,0.60
2022-12-25T05:59:46.849Z,0.70
2022-12-25T06:00:22.029Z,0.70
2022-12-25T06:00:56.918Z,0.57
2022-12-25T06:01:29.476Z,0.70
2022-12-25T06:02:02.074Z,0.70
2022-12-25T06:02:38.254Z,0.60
2022-12-25T06:03:10.748Z,0.57
2022-12-25T06:03:43.125Z,0.60
2022-12-25T06:04:18.056Z,0.80
2022-12-25T06:04:50.512Z,0.60
2022-12-25T06:05:22.827Z,0.60
2022-12-25T06:05:57.666Z,0.60
2022-12-25T06:06:29.898Z,0.60
2022-12-25T06:07:02.124Z,0.60
2022-12-25T06:07:36.960Z,0.70
2022-12-25T06:08:09.172Z,0.50
2022-12-25T06:08:41.729Z,0.77
2022-12-25T06:09:13.952Z,0.60
2022-12-25T06:09:48.771Z,0.50
2022-12-25T06:10:21.075Z,0.70
2022-12-25T06:10:53.290Z,0.80
2022-12-25T06:11:28.117Z,0.63
2022-12-25T06:12:00.388Z,0.60
2022-12-25T06:12:32.724Z,0.70
2022-12-25T06:13:05.193Z,0.60
2022-12-25T06:13:40.042Z,0.60
2022-12-25T06:14:12.740Z,0.57
2022-12-25T06:14:44.976Z,0.60
2022-12-25T06:15:19.988Z,0.57
2022-12-25T06:15:54.851Z,0.50
2022-12-25T06:16:27.184Z,0.60
2022-12-25T06:17:02.196Z,0.70
2022-12-25T06:17:34.469Z,0.57
2022-12-25T06:18:07.015Z,0.93
2022-12-25T06:18:44.410Z,0.60
2022-12-25T06:19:16.687Z,0.70
2022-12-25T06:19:48.922Z,0.70
2022-12-25T06:20:23.815Z,0.60
2022-12-25T06:20:56.033Z,0.60
2022-12-25T06:21:28.264Z,0.70
2022-12-25T06:22:03.144Z,0.60
2022-12-25T06:22:35.907Z,0.70
2022-12-25T06:23:08.468Z,0.60
2022-12-25T06:23:43.638Z,0.67
2022-12-25T06:24:21.030Z,0.53
2022-12-25T06:24:53.727Z,0.50
2022-12-25T06:25:28.613Z,0.50
2022-12-25T06:26:03.482Z,0.53
2022-12-25T06:26:35.713Z,0.50
2022-12-25T06:27:10.547Z,0.50
2022-12-25T06:27:43.152Z,0.63
2022-12-25T06:28:15.375Z,0.90
2022-12-25T06:28:50.361Z,0.67
2022-12-25T06:29:22.586Z,0.70
2022-12-25T06:29:55.019Z,0.70
2022-12-25T06:30:29.840Z,0.60
2022-12-25T06:31:09.459Z,0.90
2022-12-25T06:31:42.158Z,0.70
2022-12-25T06:32:17.032Z,0.60
2022-12-25T06:32:49.264Z,0.60
2022-12-25T06:33:21.492Z,0.60
2022-12-25T06:33:56.344Z,0.87
2022-12-25T06:34:28.591Z,0.60
2022-12-25T06:35:00.883Z,0.70
2022-12-25T06:35:33.204Z,0.60
2022-12-25T06:36:09.759Z,1.03
2022-12-25T06:36:42.876Z,1.13
2022-12-25T06:37:15.108Z,0.73
2022-12-25T06:37:50.071Z,0.70
2022-12-25T06:38:22.294Z,0.90
2022-12-25T06:38:55.072Z,0.60
2022-12-25T06:39:29.901Z,0.70
2022-12-25T06:40:02.127Z,0.80
2022-12-25T06:40:34.748Z,0.70
2022-12-25T06:41:10.741Z,0.60
2022-12-25T06:41:43.014Z,0.60
2022-12-25T06:42:15.273Z,0.50
2022-12-25T06:42:50.122Z,1.13
2022-12-25T06:43:22.326Z,0.60
2022-12-25T06:43:55.466Z,0.80
2022-12-25T06:44:30.534Z,0.60
2022-12-25T06:45:02.779Z,0.80
2022-12-25T06:45:35.591Z,0.73
2022-12-25T06:46:14.494Z,0.50
2022-12-25T06:46:46.752Z,0.60
2022-12-25T06:47:18.986Z,0.67
2022-12-25T06:47:53.823Z,0.60
2022-12-25T06:48:26.037Z,0.70
2022-12-25T06:48:59.080Z,0.73
2022-12-25T06:49:33.954Z,0.67
2022-12-25T06:50:07.700Z,0.50
2022-12-25T06:50:43.283Z,0.60
2022-12-25T06:51:18.721Z,0.50
2022-12-25T06:51:50.956Z,0.60
2022-12-25T06:52:23.181Z,0.70
2022-12-25T06:52:59.125Z,0.60
2022-12-25T06:53:38.854Z,0.63
2022-12-25T06:54:12.925Z,0.60
2022-12-25T06:54:47.739Z,0.70
2022-12-25T06:55:19.951Z,0.80
2022-12-25T06:55:52.326Z,0.73
2022-12-25T06:56:26.292Z,0.60
2022-12-25T06:57:01.119Z,0.70
2022-12-25T06:57:33.450Z,0.57
2022-12-25T06:58:05.668Z,0.70
2022-12-25T06:58:40.485Z,0.60
2022-12-25T06:59:12.788Z,0.70
2022-12-25T06:59:53.142Z,0.70
2022-12-25T07:00:27.456Z,0.67
2022-12-25T07:00:59.968Z,0.60
2022-12-25T07:01:40.035Z,0.50
2022-12-25T07:02:16.793Z,0.70
2022-12-25T07:02:50.331Z,0.60
2022-12-25T07:03:25.622Z,0.70
2022-12-25T07:04:00.776Z,0.50
2022-12-25T07:04:39.111Z,0.60
2022-12-25T07:05:11.692Z,0.60
2022-12-25T07:05:45.030Z,0.63
2022-12-25T07:06:19.874Z,0.60
2022-12-25T07:06:52.117Z,0.80
2022-12-25T07:07:27.549Z,0.60
2022-12-25T07:07:59.882Z,0.50
2022-12-25T07:08:32.098Z,0.67
2022-12-25T07:09:07.021Z,0.60
2022-12-25T07:09:39.780Z,0.73
2022-12-25T07:10:12.272Z,0.70
2022-12-25T07:10:44.498Z,0.70
2022-12-25T07:11:19.388Z,0.60
2022-12-25T07:11:51.647Z,0.63
2022-12-25T07:12:24.408Z,0.57
2022-12-25T07:12:59.270Z,0.60
2022-12-25T07:13:31.491Z,0.60
2022-12-25T07:14:06.313Z,0.53
2022-12-25T07:14:38.575Z,0.73
2022-12-25T07:15:11.238Z,0.50
2022-12-25T07:15:43.494Z,0.67
2022-12-25T07:16:18.634Z,0.80
2022-12-25T07:16:53.571Z,0.73
2022-12-25T07:17:25.815Z,0.60
2022-12-25T07:18:00.627Z,0.60
2022-12-25T07:18:33.432Z,0.73
2022-12-25T07:19:05.650Z,0.70
2022-12-25T07:19:44.936Z,0.80
2022-12-25T07:20:17.803Z,0.77
2022-12-25T07:20:50.051Z,0.90
2022-12-25T07:21:24.866Z,0.80
2022-12-25T07:21:57.129Z,0.70
2022-12-25T07:22:32.822Z,1.03
2022-12-25T07:23:05.032Z,0.67
2022-12-25T07:23:37.306Z,0.77
2022-12-25T07:24:10.850Z,0.60
2022-12-25T07:24:45.679Z,0.70
2022-12-25T07:25:17.926Z,0.73
2022-12-25T07:25:54.500Z,0.80
2022-12-25T07:26:29.310Z,1.00
2022-12-25T07:27:01.540Z,1.00
2022-12-25T07:27:33.804Z,1.00
2022-12-25T07:28:06.053Z,1.37
2022-12-25T07:28:41.393Z,1.80
2022-12-25T07:29:13.729Z,1.17
2022-12-25T07:29:46.287Z,0.70
2022-12-25T07:30:21.218Z,0.63
2022-12-25T07:30:53.963Z,0.73
2022-12-25T07:31:26.234Z,0.70
2022-12-25T07:32:03.787Z,0.93
2022-12-25T07:32:36.202Z,1.03
2022-12-25T07:33:08.443Z,0.70
2022-12-25T07:33:43.605Z,0.70
2022-12-25T07:34:17.230Z,0.80
2022-12-25T07:34:49.436Z,0.80
2022-12-25T07:35:24.300Z,0.80
2022-12-25T07:35:56.573Z,0.70
2022-12-25T07:36:29.275Z,0.70
2022-12-25T07:37:04.120Z,0.50
2022-12-25T07:37:36.452Z,1.43
2022-12-25T07:38:08.790Z,0.80
2022-12-25T07:38:41.298Z,0.63
2022-12-25T07:39:16.381Z,0.70
2022-12-25T07:39:48.636Z,0.67
2022-12-25T07:40:20.859Z,0.70
2022-12-25T07:40:55.718Z,0.80
2022-12-25T07:41:27.947Z,0.70
2022-12-25T07:42:25.178Z,0.70
2022-12-25T07:42:59.879Z,0.70
2022-12-25T07:43:32.088Z,0.80
2022-12-25T07:44:07.384Z,0.80
2022-12-25T07:44:39.621Z,0.80
2022-12-25T07:45:11.871Z,0.70
2022-12-25T07:45:44.110Z,0.83
2022-12-25T07:46:19.065Z,0.70
2022-12-25T07:46:51.379Z,0.73
2022-12-25T07:47:26.210Z,0.80
2022-12-25T07:48:04.372Z,0.90
2022-12-25T07:48:40.414Z,0.80
2022-12-25T07:49:12.965Z,0.80
2022-12-25T07:49:45.215Z,0.80
2022-12-25T07:50:20.368Z,0.70
2022-12-25T07:50:57.039Z,0.77
2022-12-25T07:51:30.283Z,0.83
2022-12-25T07:52:05.144Z,0.90
2022-12-25T07:52:43.204Z,0.80
2022-12-25T07:53:15.950Z,0.77
2022-12-25T07:53:50.804Z,0.80
2022-12-25T07:54:23.308Z,0.70
2022-12-25T07:54:55.551Z,0.77
2022-12-25T07:55:30.487Z,0.93
2022-12-25T07:56:04.436Z,0.87
2022-12-25T07:56:36.667Z,0.90
2022-12-25T07:57:11.759Z,0.67
2022-12-25T07:57:43.996Z,0.87
2022-12-25T07:58:23.010Z,0.80
2022-12-25T07:58:58.191Z,0.80
2022-12-25T07:59:30.411Z,0.70
2022-12-25T08:00:02.702Z,0.80
2022-12-25T08:00:46.706Z,0.80
2022-12-25T08:01:21.526Z,0.70
2022-12-25T08:01:56.628Z,0.87
2022-12-25T08:02:31.829Z,1.10
2022-12-25T08:03:04.639Z,0.83
2022-12-25T08:03:39.947Z,0.70
2022-12-25T08:04:12.723Z,0.80
2022-12-25T08:04:45.001Z,0.87
2022-12-25T08:05:19.989Z,0.70
2022-12-25T08:05:52.231Z,0.83
2022-12-25T08:06:26.981Z,0.70
2022-12-25T08:07:01.807Z,0.77
2022-12-25T08:07:35.619Z,0.80
2022-12-25T08:08:07.829Z,0.70
2022-12-25T08:08:42.949Z,0.80
2022-12-25T08:09:15.272Z,0.80
2022-12-25T08:09:47.542Z,0.83
2022-12-25T08:10:22.411Z,0.90